Time;durP1;ratioP1;P1;durP2;ratioP2;P2;SDS_P1;SDS_P2;PMS_P1;PMS_P2;Temp;Humidity;BMP_temperature;BMP_pressure;BME280_temperature;BME280_humidity;BME280_pressure;Samples;Min_cycle;Max_cycle;Signal;HPM_P1;HPM_P2
2021/06/16 00:00:13;;;;;;;10.75;3.15;;;;;;;19.48;47.83;101673.75;5072978;28;20064;-51
2021/06/16 00:02:42;;;;;;;7.45;2.67;;;;;;;19.42;47.88;101663.91;5072285;28;20097;-52
2021/06/16 00:05:12;;;;;;;8.93;3.20;;;;;;;19.40;48.22;101671.69;5072779;28;20045;-50
2021/06/16 00:07:40;;;;;;;9.32;2.85;;;;;;;19.47;47.93;101666.56;5072976;28;20041;-51
2021/06/16 00:10:09;;;;;;;9.15;3.00;;;;;;;19.44;48.21;101667.19;5072718;28;20086;-52
2021/06/16 00:12:39;;;;;;;10.88;2.72;;;;;;;19.39;48.38;101664.53;5073067;28;20051;-51
2021/06/16 00:15:21;;;;;;;13.35;3.25;;;;;;;19.37;48.40;101667.59;5072673;28;20102;-50
2021/06/16 00:17:49;;;;;;;9.23;2.95;;;;;;;19.39;48.51;101675.59;5072276;28;20053;-47
2021/06/16 00:20:18;;;;;;;9.43;3.25;;;;;;;19.35;48.51;101657.97;5072617;28;20040;-50
2021/06/16 00:22:45;;;;;;;7.45;2.78;;;;;;;19.29;48.68;101650.91;5071862;28;20802;-52
2021/06/16 00:25:13;;;;;;;8.88;2.97;;;;;;;19.22;48.99;101653.25;5072610;28;20453;-51
2021/06/16 00:27:41;;;;;;;8.82;2.70;;;;;;;19.16;49.14;101653.34;5072591;28;20453;-55
2021/06/16 00:30:09;;;;;;;10.32;2.83;;;;;;;19.13;49.44;101645.69;5073062;28;20040;-51
2021/06/16 00:32:39;;;;;;;11.00;3.00;;;;;;;19.15;49.59;101654.50;5069075;28;20066;-51
2021/06/16 00:35:07;;;;;;;11.23;3.00;;;;;;;19.19;49.28;101642.81;5072756;28;20051;-49
2021/06/16 00:37:35;;;;;;;11.80;3.40;;;;;;;19.15;49.44;101648.97;5072636;28;20036;-51
2021/06/16 00:40:10;;;;;;;9.73;3.05;;;;;;;19.14;49.63;101650.06;5072879;28;20036;-50
2021/06/16 00:42:39;;;;;;;9.07;2.80;;;;;;;19.18;49.59;101642.00;5072528;28;20044;-52
2021/06/16 00:45:08;;;;;;;12.40;3.20;;;;;;;19.20;49.53;101648.03;5072446;28;20052;-52
2021/06/16 00:47:36;;;;;;;11.85;3.20;;;;;;;19.20;49.61;101647.25;5072573;28;20055;-52
2021/06/16 00:50:06;;;;;;;9.95;3.08;;;;;;;19.14;49.62;101647.31;5072758;28;20044;-49
2021/06/16 00:52:34;;;;;;;10.50;3.20;;;;;;;19.08;49.86;101645.78;5071339;28;20098;-50
2021/06/16 00:55:03;;;;;;;9.25;2.83;;;;;;;19.06;50.04;101641.69;5072702;28;20036;-52
2021/06/16 00:57:31;;;;;;;9.63;3.13;;;;;;;19.04;50.23;101642.00;5073154;28;20451;-51
2021/06/16 01:00:02;;;;;;;9.32;2.75;;;;;;;19.08;50.27;101631.97;5072523;28;20557;-52
2021/06/16 01:02:40;;;;;;;10.55;3.53;;;;;;;19.12;49.89;101633.00;5071667;28;20044;-51
2021/06/16 01:05:08;;;;;;;7.45;2.75;;;;;;;19.04;50.12;101624.59;5072917;28;20040;-50
2021/06/16 01:07:41;;;;;;;10.98;3.35;;;;;;;18.95;50.52;101616.19;5073093;28;20048;-52
2021/06/16 01:10:14;;;;;;;9.65;3.05;;;;;;;18.91;50.42;101621.53;5072449;28;20064;-53
2021/06/16 01:12:45;;;;;;;8.15;3.22;;;;;;;18.94;50.56;101625.63;5071519;28;20098;-52
2021/06/16 01:15:18;;;;;;;9.15;3.05;;;;;;;18.90;50.60;101624.56;5066585;28;21059;-49
2021/06/16 01:17:52;;;;;;;14.93;3.17;;;;;;;18.82;51.00;101623.34;5051210;28;20056;-54
2021/06/16 01:20:32;;;;;;;9.77;3.13;;;;;;;18.78;51.18;101621.50;5072651;28;20041;-50
2021/06/16 01:23:03;;;;;;;8.55;2.90;;;;;;;18.80;51.39;101628.34;5072623;28;20052;-49
2021/06/16 01:25:41;;;;;;;9.32;2.90;;;;;;;18.84;51.32;101620.28;5072307;28;20036;-50
2021/06/16 01:28:10;;;;;;;8.88;2.95;;;;;;;18.83;51.16;101619.47;5062690;28;20060;-48
2021/06/16 01:30:39;;;;;;;10.82;2.95;;;;;;;18.74;51.55;101621.25;5072453;28;20044;-50
2021/06/16 01:33:08;;;;;;;7.82;2.63;;;;;;;18.70;51.62;101621.03;5070857;28;20056;-51
2021/06/16 01:35:38;;;;;;;12.27;3.30;;;;;;;18.69;51.67;101624.13;5071035;28;20486;-51
2021/06/16 01:38:06;;;;;;;11.00;3.30;;;;;;;18.64;51.84;101619.50;5072424;28;20075;-49
2021/06/16 01:40:35;;;;;;;13.25;3.40;;;;;;;18.62;51.91;101618.19;5071187;28;20064;-51
2021/06/16 01:43:03;;;;;;;12.80;3.38;;;;;;;18.57;51.93;101619.09;5071082;28;20033;-51
2021/06/16 01:45:34;;;;;;;9.90;3.20;;;;;;;18.54;52.14;101611.38;5070506;28;20092;-50
2021/06/16 01:48:02;;;;;;;13.02;3.20;;;;;;;18.53;52.29;101609.75;5071818;28;20449;-53
2021/06/16 01:50:30;;;;;;;12.23;3.70;;;;;;;18.50;52.24;101611.19;5072837;28;20044;-53
2021/06/16 01:53:00;;;;;;;8.93;3.10;;;;;;;18.53;52.27;101609.75;5074538;28;20072;-51
2021/06/16 01:55:28;;;;;;;10.52;3.80;;;;;;;18.51;52.52;101615.56;5075633;28;20036;-52
2021/06/16 01:57:57;;;;;;;11.40;3.40;;;;;;;18.49;52.26;101608.72;5073935;28;20041;-52
2021/06/16 02:00:25;;;;;;;12.13;3.47;;;;;;;18.55;52.25;101601.19;5074692;28;20051;-54
2021/06/16 02:02:53;;;;;;;12.68;3.47;;;;;;;18.52;52.34;101603.44;5074256;28;20080;-53
2021/06/16 02:05:25;;;;;;;8.32;3.17;;;;;;;18.48;52.18;101601.56;5074598;28;20063;-52
2021/06/16 02:08:20;;;;;;;11.90;3.30;;;;;;;18.43;52.58;101605.25;5075792;28;20068;-54
2021/06/16 02:10:50;;;;;;;12.38;3.47;;;;;;;18.34;52.70;101601.53;5075448;28;20040;-53
2021/06/16 02:13:37;;;;;;;11.20;3.10;;;;;;;18.30;53.04;101594.97;5075068;28;20044;-53
2021/06/16 02:16:08;;;;;;;10.25;3.13;;;;;;;18.26;52.91;101599.47;5075324;28;20098;-54
2021/06/16 02:18:45;;;;;;;11.57;3.92;;;;;;;18.24;53.12;101597.00;5074245;28;20086;-50
2021/06/16 02:21:14;;;;;;;13.88;4.07;;;;;;;18.21;53.10;101596.78;5074925;28;20049;-53
2021/06/16 02:23:43;;;;;;;10.60;3.30;;;;;;;18.19;53.01;101593.50;5075161;28;20045;-51
2021/06/16 02:26:15;;;;;;;14.25;3.30;;;;;;;18.19;52.85;101588.00;5074738;28;20449;-50
2021/06/16 02:28:44;;;;;;;12.90;3.65;;;;;;;18.17;53.30;101587.47;5074324;28;20450;-50
2021/06/16 02:31:12;;;;;;;10.10;3.25;;;;;;;18.14;53.05;101582.56;5074944;28;20074;-52
2021/06/16 02:33:40;;;;;;;15.82;3.65;;;;;;;18.11;53.10;101575.69;5074685;28;20060;-54
2021/06/16 02:36:09;;;;;;;9.45;3.38;;;;;;;18.06;53.18;101581.28;5073813;28;20487;-49
2021/06/16 02:38:37;;;;;;;12.73;3.58;;;;;;;18.06;53.07;101579.38;5073618;28;20048;-54
2021/06/16 02:41:09;;;;;;;9.70;3.20;;;;;;;18.07;53.36;101569.16;5073617;28;20081;-52
2021/06/16 02:43:37;;;;;;;9.65;3.35;;;;;;;18.10;53.16;101576.81;5075011;28;20049;-52
2021/06/16 02:46:06;;;;;;;11.10;3.20;;;;;;;18.12;53.40;101571.81;5029567;28;20048;-49
2021/06/16 02:48:35;;;;;;;12.32;3.10;;;;;;;18.15;52.78;101568.44;5074973;28;20094;-51
2021/06/16 02:51:03;;;;;;;16.17;3.50;;;;;;;18.14;52.64;101563.25;5074200;28;20067;-55
2021/06/16 02:53:31;;;;;;;13.93;4.18;;;;;;;18.08;53.17;101562.50;5073661;28;20044;-53
2021/06/16 02:56:02;;;;;;;7.72;3.15;;;;;;;18.04;53.11;101564.25;5072495;28;20044;-55
2021/06/16 02:58:33;;;;;;;11.95;3.67;;;;;;;18.02;53.06;101556.25;5074418;28;20044;-47
2021/06/16 03:01:02;;;;;;;11.90;3.80;;;;;;;17.99;53.16;101556.03;5072665;28;20106;-51
2021/06/16 03:03:30;;;;;;;9.80;3.50;;;;;;;17.95;53.60;101557.75;5072852;28;20499;-52
2021/06/16 03:06:00;;;;;;;10.25;3.58;;;;;;;17.91;53.52;101552.00;5072643;28;20506;-53
2021/06/16 03:08:28;;;;;;;8.13;3.05;;;;;;;17.94;53.44;101550.59;5074229;28;20048;-51
2021/06/16 03:10:58;;;;;;;9.75;3.58;;;;;;;17.95;53.42;101555.00;5072384;28;20040;-51
2021/06/16 03:13:28;;;;;;;14.23;3.60;;;;;;;17.93;53.53;101551.72;5072971;28;20064;-51
2021/06/16 03:15:56;;;;;;;12.10;4.05;;;;;;;17.91;53.55;101545.69;5073076;28;20521;-52
2021/06/16 03:18:24;;;;;;;13.20;4.28;;;;;;;17.90;53.54;101552.34;5058838;28;20040;-53
2021/06/16 03:20:56;;;;;;;10.35;3.70;;;;;;;17.87;53.71;101554.56;5072613;28;20060;-51
2021/06/16 03:23:25;;;;;;;11.88;3.35;;;;;;;17.85;53.68;101553.22;5074022;28;20269;-49
2021/06/16 03:25:55;;;;;;;11.68;4.07;;;;;;;17.87;53.76;101551.81;5072506;28;20052;-48
2021/06/16 03:28:25;;;;;;;9.45;3.28;;;;;;;17.91;53.66;101548.44;5072669;28;20032;-53
2021/06/16 03:30:57;;;;;;;13.75;3.72;;;;;;;17.92;53.45;101550.06;5073889;28;20411;-53
2021/06/16 03:33:25;;;;;;;7.88;3.40;;;;;;;17.92;53.55;101558.34;5073578;28;20059;-52
2021/06/16 03:35:53;;;;;;;12.18;3.53;;;;;;;17.89;53.72;101543.22;5073566;28;20082;-51
2021/06/16 03:38:21;;;;;;;13.70;3.95;;;;;;;17.83;54.11;101545.25;5073655;28;20102;-51
2021/06/16 03:40:49;;;;;;;9.35;3.63;;;;;;;17.80;53.81;101542.25;5071974;28;20049;-51
2021/06/16 03:43:18;;;;;;;8.60;3.30;;;;;;;17.78;54.28;101533.47;5072443;28;20044;-54
2021/06/16 03:45:46;;;;;;;11.30;3.83;;;;;;;17.80;54.18;101542.25;5074289;28;20032;-54
2021/06/16 03:48:18;;;;;;;10.10;3.42;;;;;;;17.80;53.74;101537.59;5073741;28;20068;-55
2021/06/16 03:50:46;;;;;;;10.60;3.28;;;;;;;17.81;53.95;101541.16;5075936;28;20106;-54
2021/06/16 03:53:14;;;;;;;13.80;3.72;;;;;;;17.81;54.14;101533.69;5074397;28;20044;-52
2021/06/16 03:55:43;;;;;;;11.57;3.67;;;;;;;17.81;53.94;101536.44;5078561;28;20037;-51
2021/06/16 03:58:12;;;;;;;12.48;3.50;;;;;;;17.83;53.75;101528.72;5076389;28;20036;-51
2021/06/16 04:00:40;;;;;;;11.65;3.70;;;;;;;17.85;53.96;101531.19;5075043;28;20037;-52
2021/06/16 04:03:10;;;;;;;10.35;3.80;;;;;;;17.85;54.08;101533.94;5075122;28;20075;-54
2021/06/16 04:05:38;;;;;;;11.20;3.85;;;;;;;17.84;54.20;101538.59;5073591;28;20503;-53
2021/06/16 04:08:07;;;;;;;13.07;3.97;;;;;;;17.84;53.85;101530.34;5055536;28;20037;-52
2021/06/16 04:10:36;;;;;;;15.82;4.13;;;;;;;17.87;54.14;101527.00;5072930;28;20040;-52
2021/06/16 04:13:05;;;;;;;11.02;3.70;;;;;;;17.91;53.97;101526.38;5073332;28;20445;-53
2021/06/16 04:15:32;;;;;;;10.57;3.53;;;;;;;17.88;53.84;101517.59;5073769;28;20045;-53
2021/06/16 04:18:00;;;;;;;12.50;3.50;;;;;;;17.85;54.46;101518.19;5073100;28;20086;-53
2021/06/16 04:20:29;;;;;;;14.02;4.18;;;;;;;17.88;54.29;101511.25;5073110;28;20048;-51
2021/06/16 04:22:57;;;;;;;11.70;3.67;;;;;;;17.91;54.11;101512.59;5072707;28;20560;-55
2021/06/16 04:25:26;;;;;;;11.63;3.78;;;;;;;17.95;54.17;101516.41;5073159;28;20049;-54
2021/06/16 04:27:55;;;;;;;11.20;3.70;;;;;;;17.94;54.20;101507.28;5072539;28;20052;-52
2021/06/16 04:30:24;;;;;;;9.93;3.50;;;;;;;17.99;53.82;101514.66;5072128;28;20059;-54
2021/06/16 04:32:52;;;;;;;13.48;4.10;;;;;;;17.99;53.96;101514.66;5072491;28;20056;-54
2021/06/16 04:35:20;;;;;;;10.85;3.58;;;;;;;18.07;53.94;101511.22;5071896;28;20041;-53
2021/06/16 04:37:48;;;;;;;12.88;3.78;;;;;;;18.16;53.77;101508.59;5072115;28;20044;-58
2021/06/16 04:40:16;;;;;;;10.65;3.65;;;;;;;18.18;53.41;101507.16;5072047;28;20072;-54
2021/06/16 04:42:44;;;;;;;12.38;4.07;;;;;;;18.18;53.56;101504.41;5071996;28;20074;-52
2021/06/16 04:45:13;;;;;;;17.15;4.20;;;;;;;18.15;53.73;101501.44;5071027;28;20036;-46
2021/06/16 04:47:41;;;;;;;8.00;3.38;;;;;;;18.16;54.29;101501.16;5072266;28;20048;-47
2021/06/16 04:50:10;;;;;;;10.93;3.97;;;;;;;18.25;53.67;101499.31;5071887;28;20048;-53
2021/06/16 04:52:39;;;;;;;14.68;3.95;;;;;;;18.36;53.50;101499.16;5065414;28;20040;-49
2021/06/16 04:55:09;;;;;;;11.50;3.60;;;;;;;18.42;53.35;101497.91;5051255;28;20136;-52
2021/06/16 04:57:37;;;;;;;9.55;3.72;;;;;;;18.49;53.31;101493.63;5051057;28;20037;-50
2021/06/16 05:00:10;;;;;;;8.75;3.33;;;;;;;18.57;53.04;101491.28;5051712;28;20040;-51
2021/06/16 05:02:38;;;;;;;14.63;4.32;;;;;;;18.57;52.90;101494.03;5051892;28;20522;-49
2021/06/16 05:05:07;;;;;;;12.82;4.03;;;;;;;18.55;53.20;101486.09;5051778;28;20091;-48
2021/06/16 05:07:35;;;;;;;16.33;4.57;;;;;;;18.53;53.38;101477.28;5051085;28;20072;-47
2021/06/16 05:10:06;;;;;;;13.50;3.97;;;;;;;18.53;53.11;101483.63;5051336;28;20036;-49
2021/06/16 05:12:35;;;;;;;14.50;4.18;;;;;;;18.52;53.35;101487.50;5051773;28;20047;-51
2021/06/16 05:15:03;;;;;;;10.02;4.03;;;;;;;18.52;53.48;101487.50;5051456;28;20048;-51
2021/06/16 05:17:31;;;;;;;8.57;3.63;;;;;;;18.55;53.42;101480.56;5051626;28;20095;-51
2021/06/16 05:19:59;;;;;;;12.93;4.25;;;;;;;18.56;53.37;101484.94;5051669;28;20041;-50
2021/06/16 05:22:28;;;;;;;11.90;4.10;;;;;;;18.56;53.67;101487.72;5051081;28;20091;-48
2021/06/16 05:24:58;;;;;;;10.43;4.20;;;;;;;18.58;53.70;101479.13;5044441;28;20055;-49
2021/06/16 05:27:26;;;;;;;11.75;3.90;;;;;;;18.64;53.48;101486.16;5055345;28;20503;-49
2021/06/16 05:29:54;;;;;;;10.75;3.85;;;;;;;18.69;53.53;101478.63;5055507;28;20068;-52
2021/06/16 05:32:22;;;;;;;10.82;4.57;;;;;;;18.69;53.42;101484.16;5055473;28;20041;-48
2021/06/16 05:34:51;;;;;;;12.07;4.18;;;;;;;18.70;53.39;101488.53;5056787;28;20053;-54
2021/06/16 05:37:19;;;;;;;11.48;4.13;;;;;;;18.72;53.31;101480.75;5054905;28;20057;-54
2021/06/16 05:39:47;;;;;;;13.38;4.35;;;;;;;18.76;53.53;101481.00;5055537;28;20072;-49
2021/06/16 05:42:15;;;;;;;12.68;4.30;;;;;;;18.78;53.66;101472.41;5055199;28;20098;-50
2021/06/16 05:44:42;;;;;;;10.77;4.18;;;;;;;18.78;53.75;101480.69;5055180;28;20072;-53
2021/06/16 05:47:10;;;;;;;17.10;4.72;;;;;;;18.78;53.82;101472.41;5055413;28;20512;-53
2021/06/16 05:49:38;;;;;;;12.50;4.88;;;;;;;18.78;54.00;101480.69;5054916;28;20052;-52
2021/06/16 05:52:06;;;;;;;8.57;3.88;;;;;;;18.81;53.77;101477.31;5054615;28;20403;-54
2021/06/16 05:54:37;;;;;;;11.73;4.28;;;;;;;18.85;53.66;101476.38;5055105;28;20495;-52
2021/06/16 05:57:05;;;;;;;11.80;3.47;;;;;;;18.91;53.71;101466.06;5055120;28;20049;-51
2021/06/16 05:59:33;;;;;;;13.68;4.88;;;;;;;18.97;53.59;101467.56;5054852;28;20083;-50
2021/06/16 06:02:01;;;;;;;12.02;4.57;;;;;;;18.99;53.92;101472.81;5055102;28;20041;-49
2021/06/16 06:04:29;;;;;;;15.02;4.22;;;;;;;19.00;53.86;101466.13;5054299;28;20112;-51
2021/06/16 06:06:58;;;;;;;13.32;5.10;;;;;;;19.03;54.56;101463.59;5054825;28;20045;-53
2021/06/16 06:09:25;;;;;;;15.60;5.28;;;;;;;19.02;54.93;101463.88;5054462;28;20095;-52
2021/06/16 06:11:53;;;;;;;14.55;4.60;;;;;;;19.02;54.34;101456.41;5054989;28;20069;-47
2021/06/16 06:14:21;;;;;;;11.50;4.60;;;;;;;19.02;54.47;101464.69;5054777;28;20037;-53
2021/06/16 06:16:48;;;;;;;9.13;4.25;;;;;;;19.04;54.40;101458.88;5054673;28;20048;-51
2021/06/16 06:19:16;;;;;;;14.63;4.30;;;;;;;19.09;54.41;101459.56;5054271;28;20513;-51
2021/06/16 06:21:44;;;;;;;12.10;4.35;;;;;;;19.13;54.27;101452.31;5054578;28;20103;-50
2021/06/16 06:24:11;;;;;;;15.60;4.63;;;;;;;19.15;54.40;101452.81;5054827;28;20049;-52
2021/06/16 06:26:39;;;;;;;11.70;4.13;;;;;;;19.22;54.00;101448.78;5054097;28;20041;-53
2021/06/16 06:29:07;;;;;;;11.60;4.55;;;;;;;19.24;54.05;101452.06;5054274;28;20442;-50
2021/06/16 06:31:34;;;;;;;16.38;4.82;;;;;;;19.27;54.00;101449.53;5054307;28;20044;-51
2021/06/16 06:34:02;;;;;;;11.90;4.05;;;;;;;19.28;54.02;101445.63;5064862;28;20044;-51
2021/06/16 06:36:32;;;;;;;19.98;5.05;;;;;;;19.31;54.34;101441.41;5073875;28;20170;-49
2021/06/16 06:39:00;;;;;;;15.73;5.65;;;;;;;19.36;54.09;101438.53;5074101;28;20082;-53
2021/06/16 06:41:28;;;;;;;25.13;5.10;;;;;;;19.41;54.33;101434.81;5074438;28;20051;-52
2021/06/16 06:43:56;;;;;;;12.07;4.68;;;;;;;19.46;54.79;101426.41;5074417;28;20093;-51
2021/06/16 06:46:24;;;;;;;16.70;4.70;;;;;;;19.52;54.23;101439.78;5074327;28;20040;-53
2021/06/16 06:48:53;;;;;;;12.23;4.90;;;;;;;19.56;54.23;101428.94;5073523;28;20083;-51
2021/06/16 06:51:20;;;;;;;14.15;5.50;;;;;;;19.60;54.49;101418.88;5074124;28;20037;-57
2021/06/16 06:53:48;;;;;;;10.30;4.40;;;;;;;19.66;54.88;101417.63;5073982;28;20048;-55
2021/06/16 06:56:16;;;;;;;12.25;4.93;;;;;;;19.71;53.99;101416.72;5073685;28;20045;-51
2021/06/16 06:58:43;;;;;;;15.80;4.47;;;;;;;19.75;54.26;101417.72;5073249;28;20044;-55
2021/06/16 07:01:11;;;;;;;13.60;5.70;;;;;;;19.79;53.76;101411.25;5073912;28;20101;-55
2021/06/16 07:03:39;;;;;;;13.13;5.35;;;;;;;19.84;53.53;101413.03;5073260;28;20499;-53
2021/06/16 07:06:06;;;;;;;12.43;5.13;;;;;;;19.87;53.28;101406.91;5073513;28;20063;-52
2021/06/16 07:08:34;;;;;;;13.30;5.32;;;;;;;19.93;53.56;101404.78;5073771;28;20093;-54
2021/06/16 07:11:02;;;;;;;14.38;5.47;;;;;;;19.99;53.59;101401.59;5073272;28;20083;-53
2021/06/16 07:13:29;;;;;;;14.10;4.97;;;;;;;20.07;53.73;101391.69;5073247;28;20078;-53
2021/06/16 07:16:07;;;;;;;17.67;4.35;;;;;;;20.16;53.58;101400.03;5072848;28;20052;-50
2021/06/16 07:18:35;;;;;;;10.95;4.32;;;;;;;20.22;53.22;101398.75;5073244;28;20491;-52
2021/06/16 07:21:03;;;;;;;13.85;5.15;;;;;;;20.26;52.87;101388.69;5073339;28;20441;-54
2021/06/16 07:23:31;;;;;;;11.23;4.50;;;;;;;20.29;52.73;101388.03;5067267;28;20114;-49
2021/06/16 07:25:59;;;;;;;10.95;3.90;;;;;;;20.36;52.34;101393.09;5073254;28;20380;-51
2021/06/16 07:28:27;;;;;;;20.42;5.50;;;;;;;20.42;52.17;101392.66;5072868;28;20064;-51
2021/06/16 07:30:54;;;;;;;23.38;6.90;;;;;;;20.47;51.44;101388.09;5072701;28;20045;-55
2021/06/16 07:33:22;;;;;;;15.07;4.70;;;;;;;20.50;51.47;101387.47;5072650;28;20045;-60
2021/06/16 07:35:51;;;;;;;21.83;4.63;;;;;;;20.58;50.64;101383.91;5061246;28;20414;-58
2021/06/16 07:38:20;;;;;;;17.88;4.63;;;;;;;20.58;50.95;101372.84;5060836;28;20411;-54
2021/06/16 07:40:48;;;;;;;13.57;4.00;;;;;;;20.66;50.82;101380.38;5052692;28;20052;-56
2021/06/16 07:43:16;;;;;;;12.57;4.10;;;;;;;20.76;49.97;101379.25;5051719;28;20283;-55
2021/06/16 07:45:43;;;;;;;11.18;3.45;;;;;;;20.78;50.08;101365.88;5052745;28;20047;-53
2021/06/16 07:48:11;;;;;;;10.63;4.03;;;;;;;20.82;49.35;101370.44;5055118;28;20492;-52
2021/06/16 07:50:39;;;;;;;11.05;3.45;;;;;;;20.88;49.29;101364.72;5052178;28;20044;-54
2021/06/16 07:53:07;;;;;;;12.40;3.80;;;;;;;20.95;49.12;101365.06;5052535;28;20048;-49
2021/06/16 07:55:38;;;;;;;9.55;3.03;;;;;;;20.98;47.97;101364.44;5052651;28;20045;-54
2021/06/16 07:58:07;;;;;;;9.82;3.38;;;;;;;21.02;47.83;101370.94;5052666;28;20110;-54
2021/06/16 08:00:35;;;;;;;21.90;4.45;;;;;;;21.01;47.63;101366.53;5052180;28;20049;-54
2021/06/16 08:03:04;;;;;;;9.13;3.08;;;;;;;21.07;47.43;101359.72;5052264;28;20049;-52
2021/06/16 08:05:32;;;;;;;8.68;3.17;;;;;;;21.14;47.53;101359.19;5054942;28;20087;-55
2021/06/16 08:07:59;;;;;;;9.20;2.95;;;;;;;21.17;47.86;101362.16;5057363;28;20041;-55
2021/06/16 08:10:31;;;;;;;10.63;3.35;;;;;;;21.19;47.45;101354.31;5052658;28;20041;-55
2021/06/16 08:12:58;;;;;;;6.43;3.00;;;;;;;21.20;47.47;101355.94;5051961;28;20045;-50
2021/06/16 08:15:27;;;;;;;7.07;2.83;;;;;;;21.23;47.49;101357.25;5052033;28;20055;-54
2021/06/16 08:17:56;;;;;;;7.03;2.85;;;;;;;21.25;47.41;101352.19;5052104;28;20450;-53
2021/06/16 08:20:24;;;;;;;7.03;3.30;;;;;;;21.30;47.85;101356.75;5052292;28;20049;-53
2021/06/16 08:22:52;;;;;;;7.57;2.40;;;;;;;21.40;47.58;101348.13;5052083;28;20048;-52
2021/06/16 08:25:21;;;;;;;11.93;3.88;;;;;;;21.50;47.42;101345.00;5052355;28;20091;-55
2021/06/16 08:27:53;;;;;;;9.02;3.10;;;;;;;21.59;47.26;101345.78;5052097;28;20045;-55
2021/06/16 08:30:21;;;;;;;8.82;3.38;;;;;;;21.68;46.77;101349.38;5051538;28;20071;-51
2021/06/16 08:32:48;;;;;;;7.72;3.60;;;;;;;21.70;46.75;101341.53;5052428;28;20091;-52
2021/06/16 08:35:16;;;;;;;8.68;3.00;;;;;;;21.81;46.62;101339.19;5070259;28;20048;-52
2021/06/16 08:37:46;;;;;;;10.98;3.90;;;;;;;21.85;46.26;101342.13;5072292;28;20086;-52
2021/06/16 08:40:16;;;;;;;9.38;4.00;;;;;;;21.81;46.88;101338.41;5071985;28;20057;-51
2021/06/16 08:42:46;;;;;;;6.65;2.90;;;;;;;21.76;46.71;101344.13;5072127;28;20052;-48
2021/06/16 08:45:19;;;;;;;8.82;3.85;;;;;;;21.72;46.80;101343.16;5071833;28;20037;-52
2021/06/16 08:47:48;;;;;;;10.75;3.92;;;;;;;21.74;46.96;101335.31;5072043;28;20096;-49
2021/06/16 08:50:17;;;;;;;9.27;4.20;;;;;;;21.77;46.89;101335.47;5071948;28;20095;-51
2021/06/16 08:52:47;;;;;;;9.57;4.30;;;;;;;21.93;46.85;101321.84;5071623;28;20060;-55
2021/06/16 08:55:19;;;;;;;9.13;3.70;;;;;;;22.03;46.45;101320.66;5072181;28;20052;-52
2021/06/16 08:57:48;;;;;;;7.70;4.43;;;;;;;22.11;46.73;101311.50;5071430;28;20445;-52
2021/06/16 09:00:17;;;;;;;5.68;3.10;;;;;;;22.19;45.89;101320.94;5074994;28;20044;-50
2021/06/16 09:02:45;;;;;;;6.72;3.25;;;;;;;22.20;47.20;101319.78;5076072;28;20082;-52
2021/06/16 09:05:13;;;;;;;6.70;3.50;;;;;;;22.37;46.47;101321.66;5075789;28;20075;-53
2021/06/16 09:07:43;;;;;;;11.52;4.07;;;;;;;22.45;46.03;101315.25;5075933;28;20056;-53
2021/06/16 09:10:17;;;;;;;10.55;4.18;;;;;;;22.45;45.79;101315.25;5071625;28;20422;-50
2021/06/16 09:12:56;;;;;;;11.38;4.32;;;;;;;22.43;46.10;101312.81;5075226;28;20049;-55
2021/06/16 09:15:29;;;;;;;5.80;2.90;;;;;;;22.45;46.15;101316.06;5075669;28;20486;-53
2021/06/16 09:18:09;;;;;;;11.07;3.58;;;;;;;22.45;46.34;101316.06;5075745;28;20048;-53
2021/06/16 09:20:43;;;;;;;9.50;3.72;;;;;;;22.53;45.19;101315.19;5075551;28;20522;-54
2021/06/16 09:23:19;;;;;;;11.85;5.72;;;;;;;22.58;45.87;101313.38;5075470;28;20044;-56
2021/06/16 09:26:09;;;;;;;11.05;4.38;;;;;;;22.64;45.32;101306.47;5075312;28;20028;-51
2021/06/16 09:28:42;;;;;;;7.95;3.40;;;;;;;22.78;44.48;101304.25;5050293;28;20068;-55
2021/06/16 09:31:12;;;;;;;9.05;3.78;;;;;;;22.85;45.32;101307.28;5057432;28;20047;-54
2021/06/16 09:33:41;;;;;;;7.82;3.80;;;;;;;23.00;44.62;101305.06;5074921;28;20067;-52
2021/06/16 09:36:14;;;;;;;9.63;3.78;;;;;;;23.07;44.36;101314.47;5055706;28;20086;-55
2021/06/16 09:38:45;;;;;;;10.57;3.42;;;;;;;23.07;44.35;101310.88;5075267;28;20094;-56
2021/06/16 09:41:29;;;;;;;10.77;4.38;;;;;;;22.97;44.78;101307.34;5075203;28;20044;-55
2021/06/16 09:43:57;;;;;;;10.98;3.53;;;;;;;23.01;44.86;101307.47;5075394;28;20132;-52
2021/06/16 09:46:24;;;;;;;10.05;4.38;;;;;;;23.10;44.99;101296.28;5076434;28;20499;-53
2021/06/16 09:48:52;;;;;;;13.40;3.83;;;;;;;23.14;45.20;101298.06;5075311;28;20047;-50
2021/06/16 09:51:25;;;;;;;9.77;3.80;;;;;;;23.22;44.86;101290.78;5075349;28;20064;-53
2021/06/16 09:54:13;;;;;;;8.10;3.80;;;;;;;23.20;44.26;101287.53;5075326;28;20044;-54
2021/06/16 09:56:42;;;;;;;11.75;4.95;;;;;;;23.22;45.05;101285.22;5074276;28;20499;-50
2021/06/16 09:59:11;;;;;;;13.27;4.05;;;;;;;23.28;45.12;101281.06;5075019;28;20036;-54
2021/06/16 10:01:48;;;;;;;11.32;4.93;;;;;;;23.38;45.61;101268.69;5075232;28;20419;-51
2021/06/16 10:04:42;;;;;;;8.25;4.10;;;;;;;23.46;44.06;101270.56;5075092;28;20526;-55
2021/06/16 10:07:17;;;;;;;11.77;4.05;;;;;;;23.53;44.05;101267.22;5075868;28;20052;-56
2021/06/16 10:09:51;;;;;;;8.48;3.38;;;;;;;23.54;44.35;101274.38;5068436;28;20049;-50
2021/06/16 10:12:21;;;;;;;12.95;3.88;;;;;;;23.62;44.16;101270.72;5074252;28;20102;-55
2021/06/16 10:14:49;;;;;;;10.73;4.40;;;;;;;23.73;44.08;101259.94;5074759;28;20041;-54
2021/06/16 10:17:17;;;;;;;12.75;4.03;;;;;;;23.71;43.91;101257.47;5075332;28;20561;-56
2021/06/16 10:19:46;;;;;;;16.40;4.55;;;;;;;23.73;44.43;101255.19;5074774;28;20037;-55
2021/06/16 10:22:14;;;;;;;8.85;3.80;;;;;;;23.66;44.32;101263.28;5074436;28;20044;-55
2021/06/16 10:24:42;;;;;;;8.48;4.05;;;;;;;23.59;44.62;101247.19;5074557;28;20033;-56
2021/06/16 10:27:24;;;;;;;12.88;4.40;;;;;;;23.65;44.57;101261.66;5073814;28;20117;-54
2021/06/16 10:29:52;;;;;;;11.30;4.70;;;;;;;23.64;44.68;101253.66;5073015;28;20534;-53
2021/06/16 10:32:20;;;;;;;8.57;4.53;;;;;;;23.72;45.11;101255.53;5073076;28;20045;-56
2021/06/16 10:34:54;;;;;;;10.00;4.50;;;;;;;23.77;44.91;101256.13;5072858;28;20110;-53
2021/06/16 10:37:39;;;;;;;11.25;5.10;;;;;;;23.80;45.40;101247.09;5074103;28;20029;-52
2021/06/16 10:40:19;;;;;;;9.82;4.63;;;;;;;23.94;44.99;101257.88;5073326;28;20052;-56
2021/06/16 10:42:59;;;;;;;11.55;6.28;;;;;;;24.01;44.83;101254.50;5074078;28;20060;-55
2021/06/16 10:45:37;;;;;;;12.95;6.40;;;;;;;24.01;45.45;101257.28;5073689;28;20110;-52
2021/06/16 10:48:07;;;;;;;11.73;5.40;;;;;;;24.06;44.98;101265.41;5072713;28;20168;-52
2021/06/16 10:50:51;;;;;;;14.40;7.00;;;;;;;24.06;45.47;101259.84;5073508;28;20441;-52
2021/06/16 10:53:20;;;;;;;21.83;11.68;;;;;;;24.02;45.44;101259.72;5074210;28;20411;-49
2021/06/16 10:55:54;;;;;;;11.60;5.40;;;;;;;24.16;45.11;101258.56;5072887;28;20037;-52
2021/06/16 10:58:28;;;;;;;17.38;10.70;;;;;;;24.18;44.89;101251.47;5073844;28;20044;-55
2021/06/16 11:01:15;;;;;;;12.57;5.10;;;;;;;24.24;45.42;101252.88;5072160;28;20499;-53
2021/06/16 11:03:50;;;;;;;17.63;9.55;;;;;;;24.23;45.29;101247.63;5074063;28;20076;-54
2021/06/16 11:06:33;;;;;;;24.05;12.45;;;;;;;24.26;44.89;101237.75;5073417;28;20048;-53
2021/06/16 11:09:16;;;;;;;15.18;8.52;;;;;;;24.22;44.75;101246.00;5067395;28;20053;-52
2021/06/16 11:11:50;;;;;;;12.00;6.22;;;;;;;24.22;45.42;101232.91;5072841;28;20504;-49
2021/06/16 11:14:36;;;;;;;11.02;6.32;;;;;;;24.25;44.59;101234.19;5053117;28;20056;-54
2021/06/16 11:17:11;;;;;;;13.88;6.90;;;;;;;24.22;45.62;101230.13;5045602;28;20052;-51
2021/06/16 11:19:41;;;;;;;18.73;7.15;;;;;;;24.26;45.57;101224.66;5047041;28;20041;-52
2021/06/16 11:22:15;;;;;;;11.38;5.80;;;;;;;24.34;45.23;101232.06;5062351;28;20395;-51
2021/06/16 11:25:07;;;;;;;14.75;8.13;;;;;;;24.38;44.87;101218.22;5059968;28;20049;-53
2021/06/16 11:27:54;;;;;;;14.35;6.60;;;;;;;24.46;45.43;101203.38;5070152;28;20045;-53
2021/06/16 11:30:40;;;;;;;11.20;6.22;;;;;;;24.51;45.25;101205.94;5052308;28;20037;-54
2021/06/16 11:33:21;;;;;;;29.20;17.45;;;;;;;24.45;45.23;101210.91;5073031;28;20032;-54